createdAt,value
2022-08-04T00:00:16.356Z,54138.43
2022-08-04T00:01:19.254Z,54194.57
2022-08-04T00:02:24.051Z,54158.48
2022-08-04T00:03:27.229Z,54097.34
2022-08-04T00:04:30.313Z,54135.43
2022-08-04T00:05:33.290Z,54122.39
2022-08-04T00:06:36.471Z,54135.43
2022-08-04T00:07:44.595Z,54127.41
2022-08-04T00:08:43.869Z,54124.40
2022-08-04T00:09:46.733Z,54168.50
2022-08-04T00:10:49.920Z,54166.50
2022-08-04T00:11:52.690Z,54134.43
2022-08-04T00:12:55.869Z,54119.39
2022-08-04T00:14:03.363Z,54132.42
2022-08-04T00:15:03.059Z,54147.45
2022-08-04T00:16:05.723Z,54119.39
2022-08-04T00:17:08.500Z,54163.49
2022-08-04T00:18:11.269Z,54140.44
2022-08-04T00:19:14.041Z,54123.40
2022-08-04T00:20:16.809Z,54085.31
2022-08-04T00:21:19.481Z,54126.41
2022-08-04T00:22:22.256Z,54113.37
2022-08-04T00:23:25.330Z,54092.33
2022-08-04T00:24:28.100Z,54085.31
2022-08-04T00:25:31.181Z,54130.41
2022-08-04T00:26:34.057Z,54106.36
2022-08-04T00:27:37.034Z,54099.34
2022-08-04T00:28:40.225Z,54074.29
2022-08-04T00:29:43.503Z,54072.28
2022-08-04T00:30:46.373Z,54045.22
2022-08-04T00:31:57.059Z,54038.20
2022-08-04T00:32:54.071Z,54103.35
2022-08-04T00:33:57.254Z,54070.28
2022-08-04T00:35:00.145Z,54062.26
2022-08-04T00:36:02.797Z,54032.19
2022-08-04T00:37:05.774Z,54023.17
2022-08-04T00:38:08.548Z,54010.14
2022-08-04T00:39:11.467Z,53991.09
2022-08-04T00:40:14.188Z,54013.14
2022-08-04T00:41:16.862Z,54008.13
2022-08-04T00:42:19.630Z,53988.09
2022-08-04T00:43:22.725Z,54010.14
2022-08-04T00:44:25.888Z,54020.16
2022-08-04T00:45:28.768Z,54021.16
2022-08-04T00:46:31.849Z,54039.21
2022-08-04T00:47:35.056Z,54044.21
2022-08-04T00:48:38.111Z,54008.13
2022-08-04T00:49:40.885Z,54030.18
2022-08-04T00:50:43.962Z,54038.20
2022-08-04T00:51:46.843Z,54036.20
2022-08-04T00:52:49.707Z,54068.27
2022-08-04T00:53:54.233Z,54006.13
2022-08-04T00:54:57.219Z,54001.12
2022-08-04T00:56:00.076Z,54022.16
2022-08-04T00:57:02.954Z,54058.25
2022-08-04T00:58:05.617Z,54024.17
2022-08-04T00:59:08.703Z,54014.15
2022-08-04T01:00:11.685Z,53994.10
2022-08-04T01:01:14.456Z,53988.09
2022-08-04T01:02:17.322Z,54004.12
2022-08-04T01:03:20.200Z,54031.19
2022-08-04T01:04:25.938Z,53967.04
2022-08-04T01:05:29.024Z,54028.18
2022-08-04T01:06:33.529Z,53964.04
2022-08-04T01:07:36.611Z,53958.02
2022-08-04T01:08:40.611Z,53964.04
2022-08-04T01:09:46.459Z,53994.10
2022-08-04T01:10:49.532Z,53966.04
2022-08-04T01:11:57.153Z,53976.06
2022-08-04T01:12:56.726Z,54008.13
2022-08-04T01:13:59.497Z,53967.04
2022-08-04T01:15:02.370Z,53994.10
2022-08-04T01:16:05.377Z,53993.10
2022-08-04T01:17:08.011Z,54008.13
2022-08-04T01:18:12.329Z,54018.16
2022-08-04T01:19:15.099Z,54032.19
2022-08-04T01:20:17.868Z,53998.11
2022-08-04T01:21:20.946Z,54010.14
2022-08-04T01:22:23.923Z,54006.13
2022-08-04T01:23:26.901Z,54008.13
2022-08-04T01:24:29.777Z,53997.11
2022-08-04T01:25:33.920Z,54008.13
2022-08-04T01:26:44.144Z,54039.21
2022-08-04T01:27:42.198Z,54028.18
2022-08-04T01:28:45.471Z,54068.27
2022-08-04T01:29:48.823Z,54018.16
2022-08-04T01:30:51.839Z,54013.14
2022-08-04T01:31:55.120Z,54035.20
2022-08-04T01:32:58.095Z,54018.16
2022-08-04T01:34:03.940Z,53980.07
2022-08-04T01:35:05.492Z,53994.10
2022-08-04T01:36:08.196Z,53980.07
2022-08-04T01:37:11.335Z,53968.04
2022-08-04T01:38:18.434Z,54048.23
2022-08-04T01:39:18.254Z,53997.11
2022-08-04T01:40:21.083Z,53982.07
2022-08-04T01:41:32.683Z,53960.02
2022-08-04T01:42:31.911Z,54014.15
2022-08-04T01:43:33.091Z,54006.13
2022-08-04T01:44:36.063Z,53998.11
2022-08-04T01:45:39.252Z,53963.03
2022-08-04T01:46:42.429Z,53974.05
2022-08-04T01:47:45.611Z,54013.14
2022-08-04T01:48:47.980Z,54005.13
2022-08-04T01:49:50.650Z,53978.06
2022-08-04T01:50:53.515Z,53984.08
2022-08-04T01:51:56.696Z,53997.11
2022-08-04T01:52:59.679Z,53973.05
2022-08-04T01:54:02.547Z,54015.15
2022-08-04T01:55:05.220Z,54000.11
2022-08-04T01:56:07.992Z,53998.11
2022-08-04T01:57:38.083Z,53999.11
2022-08-04T01:58:15.689Z,54008.13
2022-08-04T01:59:18.668Z,53998.11
2022-08-04T02:00:21.439Z,53984.08
2022-08-04T02:01:24.355Z,53978.06
2022-08-04T02:02:27.271Z,54016.15
2022-08-04T02:04:21.658Z,54044.21
2022-08-04T02:04:46.868Z,53977.06
2022-08-04T02:06:03.044Z,54021.16
2022-08-04T02:06:54.260Z,53997.11
2022-08-04T02:07:57.130Z,53994.10
2022-08-04T02:09:08.403Z,53831.73
2022-08-04T02:10:11.497Z,53986.08
2022-08-04T02:11:14.349Z,54022.16
2022-08-04T02:12:17.230Z,54034.19
2022-08-04T02:13:20.329Z,54024.17
2022-08-04T02:14:23.185Z,54000.11
2022-08-04T02:15:26.067Z,54053.23
2022-08-04T02:16:28.823Z,54034.19
2022-08-04T02:17:31.697Z,54028.18
2022-08-04T02:18:34.464Z,54028.18
2022-08-04T02:19:37.754Z,54025.17
2022-08-04T02:20:40.827Z,53968.04
2022-08-04T02:21:43.809Z,54018.16
2022-08-04T02:22:46.793Z,54030.18
2022-08-04T02:23:49.766Z,54024.17
2022-08-04T02:24:52.740Z,54041.21
2022-08-04T02:25:55.613Z,54040.21
2022-08-04T02:26:58.799Z,54028.18
2022-08-04T02:28:01.693Z,53980.07
2022-08-04T02:29:07.827Z,54005.13
2022-08-04T02:30:10.700Z,53999.11
2022-08-04T02:31:13.780Z,54004.12
2022-08-04T02:32:17.178Z,54009.14
2022-08-04T02:33:20.063Z,54040.21
2022-08-04T02:34:22.811Z,54041.21
2022-08-04T02:35:25.903Z,54030.18
2022-08-04T02:36:28.560Z,54066.27
2022-08-04T02:37:31.429Z,54058.25
2022-08-04T02:38:34.311Z,54043.21
2022-08-04T02:39:48.268Z,54062.26
2022-08-04T02:40:42.008Z,54071.28
2022-08-04T02:41:44.576Z,54087.32
2022-08-04T02:42:47.244Z,54070.28
2022-08-04T02:43:51.668Z,54081.30
2022-08-04T02:44:54.522Z,54082.30
2022-08-04T02:45:57.612Z,54108.36
2022-08-04T02:47:00.173Z,54120.39
2022-08-04T02:48:29.252Z,54111.37
2022-08-04T02:49:07.162Z,54118.39
2022-08-04T02:50:09.819Z,54117.39
2022-08-04T02:51:12.804Z,54118.39
2022-08-04T02:52:15.786Z,54136.43
2022-08-04T02:53:18.554Z,54061.25
2022-08-04T02:54:22.357Z,54092.33
2022-08-04T02:55:25.645Z,54088.32
2022-08-04T02:56:28.411Z,54051.23
2022-08-04T02:57:31.271Z,54074.29
2022-08-04T02:58:34.043Z,54058.25
2022-08-04T02:59:36.817Z,54042.21
2022-08-04T03:00:39.633Z,54023.17
2022-08-04T03:01:57.513Z,54016.15
2022-08-04T03:02:47.405Z,53994.10
2022-08-04T03:03:50.367Z,54020.16
2022-08-04T03:04:53.035Z,53991.09
2022-08-04T03:06:00.931Z,53979.07
2022-08-04T03:07:00.325Z,53971.05
2022-08-04T03:08:03.091Z,54010.14
2022-08-04T03:09:06.165Z,54021.16
2022-08-04T03:10:08.946Z,54027.18
2022-08-04T03:11:11.714Z,54020.16
2022-08-04T03:12:14.589Z,54023.17
2022-08-04T03:13:17.466Z,53997.11
2022-08-04T03:14:20.446Z,54022.16
2022-08-04T03:15:23.009Z,54010.14
2022-08-04T03:16:30.369Z,54040.21
2022-08-04T03:17:30.188Z,54050.23
2022-08-04T03:18:32.858Z,54053.23
2022-08-04T03:19:35.633Z,54050.23
2022-08-04T03:20:38.827Z,54046.22
2022-08-04T03:21:42.098Z,54067.27
2022-08-04T03:23:11.737Z,54048.23
2022-08-04T03:23:49.808Z,54070.28
2022-08-04T03:24:52.690Z,54067.27
2022-08-04T03:25:56.999Z,54081.30
2022-08-04T03:27:00.268Z,54107.36
2022-08-04T03:28:03.241Z,54087.32
2022-08-04T03:29:06.431Z,54095.33
2022-08-04T03:30:09.208Z,54070.28
2022-08-04T03:31:12.183Z,54079.30
2022-08-04T03:32:15.042Z,54038.20
2022-08-04T03:33:17.931Z,54110.37
2022-08-04T03:34:20.609Z,54050.23
2022-08-04T03:35:26.435Z,54053.23
2022-08-04T03:36:31.606Z,54092.33
2022-08-04T03:37:33.407Z,54094.33
2022-08-04T03:38:36.284Z,54132.42
2022-08-04T03:39:39.051Z,54167.50
2022-08-04T03:40:41.831Z,54149.46
2022-08-04T03:41:51.960Z,54170.51
2022-08-04T03:42:48.809Z,54169.50
2022-08-04T03:43:58.977Z,54129.41
2022-08-04T03:44:56.405Z,54122.39
2022-08-04T03:45:59.484Z,54086.31
2022-08-04T03:47:02.567Z,54067.27
2022-08-04T03:48:05.224Z,54050.23
2022-08-04T03:49:08.306Z,54081.30
2022-08-04T03:50:10.974Z,54023.17
2022-08-04T03:51:35.186Z,54024.17
2022-08-04T03:52:18.261Z,54001.12
2022-08-04T03:53:20.935Z,53993.10
2022-08-04T03:54:24.111Z,53965.04
2022-08-04T03:55:27.193Z,53923.94
2022-08-04T03:56:30.272Z,53943.99
2022-08-04T03:57:33.348Z,53939.98
2022-08-04T03:58:36.331Z,53941.98
2022-08-04T03:59:39.722Z,53933.96
2022-08-04T04:00:44.330Z,53937.97
2022-08-04T04:02:02.620Z,53899.89
2022-08-04T04:02:51.888Z,53863.80
2022-08-04T04:03:54.799Z,53886.86
2022-08-04T04:04:57.894Z,53865.81
2022-08-04T04:06:03.148Z,53870.82
2022-08-04T04:07:05.079Z,53880.84
2022-08-04T04:08:12.585Z,53881.85
2022-08-04T04:09:14.304Z,53873.83
2022-08-04T04:10:19.117Z,53837.75
2022-08-04T04:11:22.294Z,53797.66
2022-08-04T04:12:24.960Z,53733.51
2022-08-04T04:13:27.642Z,53746.54
2022-08-04T04:14:30.405Z,53719.48
2022-08-04T04:15:33.586Z,53745.54
2022-08-04T04:16:36.359Z,53719.48
2022-08-04T04:17:39.358Z,53736.52
2022-08-04T04:18:42.314Z,53717.48
2022-08-04T04:19:47.234Z,53740.53
2022-08-04T04:20:50.211Z,53734.52
2022-08-04T04:21:53.185Z,53665.36
2022-08-04T04:22:56.163Z,53712.47
2022-08-04T04:23:59.867Z,53712.47
2022-08-04T04:25:02.738Z,53707.46
2022-08-04T04:26:05.401Z,53725.50
2022-08-04T04:27:08.378Z,53735.52
2022-08-04T04:28:45.367Z,53739.53
2022-08-04T04:29:15.456Z,53713.47
2022-08-04T04:30:18.235Z,53674.38
2022-08-04T04:31:21.108Z,53677.39
2022-08-04T04:32:23.881Z,53667.37
2022-08-04T04:33:26.754Z,53677.39
2022-08-04T04:34:29.837Z,53682.40
2022-08-04T04:35:32.708Z,53703.45
2022-08-04T04:36:36.281Z,53679.39
2022-08-04T04:37:39.274Z,53648.32
2022-08-04T04:38:43.891Z,53607.23
2022-08-04T04:39:46.975Z,53629.29
2022-08-04T04:40:49.856Z,53626.28
2022-08-04T04:41:53.029Z,53591.20
2022-08-04T04:42:56.007Z,53579.18
2022-08-04T04:43:58.672Z,53521.05
2022-08-04T04:45:01.452Z,53521.05
2022-08-04T04:46:04.115Z,53515.04
2022-08-04T04:47:06.995Z,53543.09
2022-08-04T04:48:10.804Z,53511.03
2022-08-04T04:49:13.869Z,53546.10
2022-08-04T04:50:17.873Z,53526.06
2022-08-04T04:51:20.534Z,53529.06
2022-08-04T04:52:23.617Z,53565.14
2022-08-04T04:53:26.281Z,53535.08
2022-08-04T04:54:29.065Z,53543.09
2022-08-04T04:55:31.831Z,53543.09
2022-08-04T04:56:34.910Z,53509.02
2022-08-04T04:57:54.956Z,53538.09
2022-08-04T04:58:42.604Z,53480.96
2022-08-04T04:59:45.478Z,53484.97
2022-08-04T05:00:48.451Z,53473.95
2022-08-04T05:01:51.534Z,53486.97
2022-08-04T05:02:58.753Z,53508.02
2022-08-04T05:03:59.130Z,53485.97
2022-08-04T05:05:02.533Z,53499.00
2022-08-04T05:06:05.184Z,53497.00
2022-08-04T05:07:08.268Z,53418.83
2022-08-04T05:08:44.643Z,53434.86
2022-08-04T05:09:15.449Z,53413.82
2022-08-04T05:10:18.317Z,53419.83
2022-08-04T05:11:21.088Z,53411.81
2022-08-04T05:14:32.757Z,53472.95
2022-08-04T05:14:37.969Z,53461.92
2022-08-04T05:14:40.998Z,53468.93
2022-08-04T05:15:36.792Z,53454.91
2022-08-04T05:16:39.516Z,53464.93
2022-08-04T05:17:42.131Z,53469.94
2022-08-04T05:18:44.899Z,53462.92
2022-08-04T05:19:47.776Z,53490.98
2022-08-04T05:20:50.642Z,53535.08
2022-08-04T05:21:53.523Z,53583.18
2022-08-04T05:22:56.292Z,53565.14
2022-08-04T05:23:59.484Z,53597.21
2022-08-04T05:25:02.355Z,53650.33
2022-08-04T05:26:05.239Z,53687.41
2022-08-04T05:27:08.103Z,53716.48
2022-08-04T05:28:11.590Z,53717.48
2022-08-04T05:29:14.573Z,53707.46
2022-08-04T05:30:18.882Z,53749.55
2022-08-04T05:31:21.546Z,53765.59
2022-08-04T05:32:24.329Z,53761.58
2022-08-04T05:33:29.153Z,53816.70
2022-08-04T05:34:31.706Z,53847.77
2022-08-04T05:35:49.795Z,53820.71
2022-08-04T05:36:41.421Z,53819.71
2022-08-04T05:37:43.707Z,53818.70
2022-08-04T05:38:46.478Z,53781.62
2022-08-04T05:39:49.564Z,53750.55
2022-08-04T05:40:52.434Z,53799.66
2022-08-04T05:41:58.323Z,53836.75
2022-08-04T05:43:01.256Z,53877.84
2022-08-04T05:44:03.925Z,53909.91
2022-08-04T05:45:06.593Z,53909.91
2022-08-04T05:46:09.366Z,53901.89
2022-08-04T05:47:12.048Z,53938.98
2022-08-04T05:48:14.816Z,53926.95
2022-08-04T05:49:19.735Z,53949.00
2022-08-04T05:50:21.789Z,53963.03
2022-08-04T05:51:24.666Z,53948.00
2022-08-04T05:52:27.637Z,53954.01
2022-08-04T05:53:30.617Z,53979.07
2022-08-04T05:54:33.493Z,54033.19
2022-08-04T05:55:57.145Z,54041.21
2022-08-04T05:56:40.983Z,54093.33
2022-08-04T05:57:44.061Z,54105.36
2022-08-04T05:58:47.038Z,54124.40
2022-08-04T05:59:50.014Z,54140.44
2022-08-04T06:00:52.858Z,54118.39
2022-08-04T06:01:57.263Z,54182.54
2022-08-04T06:03:00.377Z,54229.64
2022-08-04T06:04:08.046Z,54236.66
2022-08-04T06:05:08.185Z,54217.62
2022-08-04T06:06:11.258Z,54252.70
2022-08-04T06:07:14.549Z,54261.72
2022-08-04T06:08:17.314Z,54340.91
2022-08-04T06:09:19.987Z,54413.08
2022-08-04T06:10:27.018Z,54459.19
2022-08-04T06:11:27.165Z,54443.15
2022-08-04T06:12:29.939Z,54420.10
2022-08-04T06:13:47.844Z,54333.89
2022-08-04T06:14:37.017Z,54372.98
2022-08-04T06:15:39.688Z,54407.07
2022-08-04T06:16:46.047Z,54390.03
2022-08-04T06:19:58.440Z,54391.03
2022-08-04T06:19:59.745Z,54343.92
2022-08-04T06:20:20.008Z,54308.83
2022-08-04T06:21:01.433Z,54265.73
2022-08-04T06:22:06.051Z,54219.62
2022-08-04T06:23:08.922Z,54166.50
2022-08-04T06:24:11.906Z,54139.44
2022-08-04T06:25:15.086Z,54135.43
2022-08-04T06:26:18.170Z,54060.25
2022-08-04T06:27:22.381Z,54103.35
2022-08-04T06:28:25.867Z,54078.29
2022-08-04T06:29:28.629Z,54068.27
2022-08-04T06:30:31.241Z,54084.31
2022-08-04T06:32:29.844Z,54078.29
2022-08-04T06:32:41.853Z,54077.29
2022-08-04T06:33:54.836Z,54081.30
2022-08-04T06:34:46.791Z,54064.26
2022-08-04T06:35:50.587Z,54046.22
2022-08-04T06:36:53.254Z,54070.28
2022-08-04T06:38:00.649Z,54096.34
2022-08-04T06:39:00.859Z,54080.30
2022-08-04T06:40:16.715Z,54034.19
2022-08-04T06:41:08.442Z,54085.31
2022-08-04T06:42:21.531Z,54067.27
2022-08-04T06:43:16.134Z,54077.29
2022-08-04T06:44:21.408Z,54064.26
2022-08-04T06:45:23.317Z,54056.25
2022-08-04T06:46:26.090Z,54014.15
2022-08-04T06:47:28.964Z,54053.23
2022-08-04T06:48:33.908Z,54077.29
2022-08-04T06:49:55.215Z,54067.27
2022-08-04T06:51:32.783Z,54050.23
2022-08-04T06:51:49.314Z,54086.31
2022-08-04T06:52:50.000Z,54080.30
2022-08-04T06:53:53.282Z,54119.39
2022-08-04T06:54:56.268Z,54092.33
2022-08-04T06:55:59.447Z,54138.43
2022-08-04T06:57:02.615Z,54154.47
2022-08-04T06:58:05.501Z,54226.64
2022-08-04T06:59:09.101Z,54297.81
2022-08-04T07:00:11.962Z,54392.03
2022-08-04T07:01:14.739Z,54516.33
2022-08-04T07:02:17.405Z,54619.58
2022-08-04T07:03:20.277Z,54686.75
2022-08-04T07:04:23.479Z,54778.97
2022-08-04T07:05:27.261Z,54824.09
2022-08-04T07:06:30.336Z,54907.29
2022-08-04T07:07:36.628Z,54890.25
2022-08-04T07:08:38.456Z,54937.37
2022-08-04T07:09:42.443Z,54938.37
2022-08-04T07:10:45.833Z,54918.32
2022-08-04T07:11:48.601Z,54924.34
2022-08-04T07:12:53.755Z,54962.43
2022-08-04T07:13:56.812Z,55022.59
2022-08-04T07:15:01.111Z,55042.64
2022-08-04T07:16:04.107Z,55130.86
2022-08-04T07:17:07.168Z,55202.05
2022-08-04T07:18:10.154Z,55341.41
2022-08-04T07:19:18.541Z,55585.06
2022-08-04T07:20:34.869Z,55877.86
2022-08-04T07:21:22.967Z,56108.50
2022-08-04T07:22:26.577Z,56331.13
2022-08-04T07:23:29.232Z,56476.55
2022-08-04T07:24:31.900Z,56720.27
2022-08-04T07:26:11.096Z,56855.68
2022-08-04T07:26:39.953Z,57058.29
2022-08-04T07:27:47.182Z,57140.54
2022-08-04T07:28:47.511Z,57247.87
2022-08-04T07:29:50.894Z,57340.16
2022-08-04T07:30:54.072Z,57302.04
2022-08-04T07:31:57.679Z,57093.39
2022-08-04T07:33:01.560Z,57001.11
2022-08-04T07:34:16.901Z,56964.00
2022-08-04T07:35:09.147Z,56958.99
2022-08-04T07:36:13.282Z,57008.14
2022-08-04T07:37:17.874Z,57022.18
2022-08-04T07:38:21.068Z,57039.23
2022-08-04T07:39:28.564Z,57054.28
2022-08-04T07:40:30.810Z,57123.49
2022-08-04T07:41:35.640Z,57203.73
2022-08-04T07:42:39.468Z,57247.87
2022-08-04T07:43:42.513Z,57259.91
2022-08-04T07:44:45.467Z,57288.00
2022-08-04T07:45:48.649Z,57313.07
2022-08-04T07:46:52.355Z,57346.18
2022-08-04T07:48:05.077Z,57402.36
2022-08-04T07:49:00.362Z,57451.51
2022-08-04T07:50:03.421Z,57477.59
2022-08-04T07:51:06.553Z,57496.65
2022-08-04T07:52:09.402Z,57529.76
2022-08-04T07:53:54.318Z,57561.86
2022-08-04T07:54:16.360Z,57633.09
2022-08-04T07:55:19.259Z,57654.16
2022-08-04T07:56:22.200Z,57685.25
2022-08-04T07:57:40.181Z,57724.38
2022-08-04T07:58:30.486Z,57737.42
2022-08-04T07:59:33.691Z,57730.40
2022-08-04T08:00:36.691Z,57738.43
2022-08-04T08:01:39.990Z,57748.46
2022-08-04T08:02:43.184Z,57763.51
2022-08-04T08:03:46.409Z,57766.52
2022-08-04T08:04:49.399Z,57802.63
2022-08-04T08:06:16.936Z,57814.67
2022-08-04T08:06:57.203Z,57804.64
2022-08-04T08:08:00.336Z,57738.43
2022-08-04T08:09:12.323Z,57694.29
2022-08-04T08:10:08.177Z,57738.43
2022-08-04T08:11:11.774Z,57703.31
2022-08-04T08:12:35.250Z,57712.34
2022-08-04T08:13:19.273Z,57715.35
2022-08-04T08:14:22.144Z,57690.27
2022-08-04T08:15:26.853Z,57638.11
2022-08-04T08:16:30.647Z,57571.89
2022-08-04T08:17:33.929Z,57516.72
2022-08-04T08:18:39.070Z,57514.71
2022-08-04T08:19:41.833Z,57463.55
2022-08-04T08:20:45.017Z,57445.49
2022-08-04T08:21:59.336Z,57343.17
2022-08-04T08:22:52.704Z,57288.00
2022-08-04T08:23:55.889Z,57217.78
2022-08-04T08:24:59.279Z,57167.62
2022-08-04T08:26:02.665Z,57148.57
2022-08-04T08:27:05.748Z,57060.29
2022-08-04T08:28:08.623Z,57093.39
2022-08-04T08:29:11.809Z,57490.63
2022-08-04T08:30:14.682Z,57468.57
2022-08-04T08:31:17.561Z,57487.62
2022-08-04T08:32:20.933Z,57475.59
2022-08-04T08:33:24.114Z,57515.71
2022-08-04T08:34:28.774Z,57509.70
2022-08-04T08:35:31.914Z,57527.75
2022-08-04T08:36:34.989Z,57528.75
2022-08-04T08:37:40.322Z,57529.76
2022-08-04T08:38:42.788Z,57505.68
2022-08-04T08:39:45.867Z,57434.46
2022-08-04T08:40:49.383Z,57429.44
2022-08-04T08:41:52.540Z,57382.29
2022-08-04T08:42:55.617Z,57365.24
2022-08-04T08:44:03.713Z,57308.06
2022-08-04T08:45:03.930Z,57256.90
2022-08-04T08:46:06.807Z,57274.96
2022-08-04T08:47:09.478Z,57236.84
2022-08-04T08:48:12.353Z,57204.74
2022-08-04T08:50:00.576Z,57217.78
2022-08-04T08:50:19.437Z,57171.64
2022-08-04T08:51:22.711Z,57168.63
2022-08-04T08:53:01.206Z,57112.45
2022-08-04T08:53:30.826Z,57073.34
2022-08-04T08:54:33.792Z,57034.21
2022-08-04T08:55:37.078Z,57002.12
2022-08-04T08:56:40.055Z,56970.02
2022-08-04T08:57:43.976Z,56931.91
2022-08-04T08:58:47.553Z,56911.84
2022-08-04T08:59:51.237Z,56915.86
2022-08-04T09:00:54.313Z,56846.65
2022-08-04T09:01:57.159Z,56820.57
2022-08-04T09:03:04.489Z,56840.63
2022-08-04T09:04:05.304Z,56785.46
2022-08-04T09:05:07.972Z,56756.38
2022-08-04T09:06:10.939Z,56738.32
2022-08-04T09:07:14.106Z,56730.30
2022-08-04T09:08:16.903Z,56694.19
2022-08-04T09:09:20.089Z,56630.00
2022-08-04T09:10:23.879Z,56642.04
2022-08-04T09:11:27.360Z,56610.95
2022-08-04T09:12:30.445Z,56613.95
2022-08-04T09:13:33.943Z,56569.82
2022-08-04T09:14:37.321Z,56548.76
2022-08-04T09:15:40.512Z,56580.86
2022-08-04T09:16:44.407Z,56530.71
2022-08-04T09:17:48.101Z,56544.75
2022-08-04T09:18:51.174Z,56567.82
2022-08-04T09:19:54.059Z,56563.81
2022-08-04T09:20:56.685Z,56531.71
2022-08-04T09:21:59.795Z,56523.69
2022-08-04T09:23:02.665Z,56511.66
2022-08-04T09:24:34.766Z,56508.64
2022-08-04T09:25:10.377Z,56444.46
2022-08-04T09:26:13.449Z,56466.52
2022-08-04T09:27:16.627Z,56514.66
2022-08-04T09:28:37.162Z,56503.63
2022-08-04T09:29:24.026Z,56533.72
2022-08-04T09:30:26.892Z,56544.75
2022-08-04T09:31:48.951Z,56574.84
2022-08-04T09:32:34.991Z,56634.02
2022-08-04T09:33:45.349Z,56599.91
2022-08-04T09:34:42.181Z,56671.12
2022-08-04T09:35:45.197Z,56721.27
2022-08-04T09:36:47.818Z,56784.46
2022-08-04T09:37:50.805Z,56817.56
2022-08-04T09:38:53.929Z,56858.68
2022-08-04T09:39:56.851Z,56897.80
2022-08-04T09:41:01.211Z,56908.84
2022-08-04T09:42:05.819Z,56952.97
2022-08-04T09:43:11.320Z,56970.02
2022-08-04T09:44:51.117Z,56962.00
2022-08-04T09:45:26.690Z,56988.07
2022-08-04T09:46:24.459Z,56958.99
2022-08-04T09:47:39.957Z,56949.96
2022-08-04T09:48:32.964Z,56927.89
2022-08-04T09:49:36.544Z,56912.85
2022-08-04T09:50:39.953Z,56873.73
2022-08-04T09:51:57.547Z,56837.62
2022-08-04T09:52:47.631Z,56844.64
2022-08-04T09:53:50.810Z,56790.48
2022-08-04T09:54:53.889Z,56752.37
2022-08-04T09:56:01.162Z,56737.32
2022-08-04T09:57:02.106Z,56762.39
2022-08-04T09:58:04.978Z,56670.12
2022-08-04T09:59:08.770Z,56673.13
2022-08-04T10:00:12.463Z,56665.11
2022-08-04T10:01:19.764Z,56669.12
2022-08-04T10:02:20.397Z,56620.98
2022-08-04T10:03:23.426Z,56646.05
2022-08-04T10:04:26.560Z,56644.04
2022-08-04T10:05:33.200Z,56634.02
2022-08-04T10:06:36.280Z,56669.12
2022-08-04T10:07:39.450Z,56702.21
2022-08-04T10:08:42.341Z,56693.19
2022-08-04T10:09:45.833Z,56722.28
2022-08-04T10:10:48.896Z,56730.30
2022-08-04T10:11:55.592Z,56759.39
2022-08-04T10:12:57.212Z,56748.35
2022-08-04T10:14:00.499Z,56771.42
2022-08-04T10:15:04.114Z,56790.48
2022-08-04T10:16:07.048Z,56795.50
2022-08-04T10:17:10.344Z,56811.54
2022-08-04T10:18:13.002Z,56851.66
2022-08-04T10:19:16.003Z,56849.66
2022-08-04T10:20:33.949Z,56876.74
2022-08-04T10:21:23.582Z,56864.70
2022-08-04T10:22:29.671Z,56894.79
2022-08-04T10:23:31.894Z,56876.74
2022-08-04T10:24:36.397Z,56906.83
2022-08-04T10:26:05.738Z,56900.81
2022-08-04T10:26:44.704Z,56862.70
2022-08-04T10:27:48.002Z,56881.75
2022-08-04T10:28:51.407Z,56855.68
2022-08-04T10:29:56.924Z,56840.63
2022-08-04T10:31:00.005Z,56882.75
2022-08-04T10:32:03.201Z,56873.73
2022-08-04T10:33:06.577Z,56892.79
2022-08-04T10:34:09.542Z,56831.60
2022-08-04T10:35:12.618Z,56861.69
2022-08-04T10:36:15.911Z,56867.71
2022-08-04T10:37:19.534Z,56877.74
2022-08-04T10:38:26.769Z,56906.83
2022-08-04T10:39:43.163Z,56940.93
2022-08-04T10:40:31.300Z,56934.91
2022-08-04T10:41:33.959Z,57003.12
2022-08-04T10:42:37.259Z,57014.15
2022-08-04T10:43:40.837Z,56994.09
2022-08-04T10:44:43.608Z,57023.18
2022-08-04T10:45:46.900Z,57025.19
2022-08-04T10:46:50.077Z,57078.35
2022-08-04T10:47:53.560Z,57067.32
2022-08-04T10:48:56.646Z,57104.43
2022-08-04T10:49:59.513Z,57162.61
2022-08-04T10:51:02.700Z,57177.66
2022-08-04T10:52:05.999Z,57209.75
2022-08-04T10:53:09.668Z,57246.87
2022-08-04T10:54:13.070Z,57302.04
2022-08-04T10:55:15.940Z,57328.12
2022-08-04T10:56:20.561Z,57402.36
2022-08-04T10:58:47.127Z,56710.24
2022-08-04T10:59:46.402Z,57467.56
2022-08-04T11:00:49.367Z,57537.78
2022-08-04T11:02:02.659Z,57621.05
2022-08-04T11:02:56.800Z,57625.06
2022-08-04T11:03:59.623Z,57686.26
2022-08-04T11:05:02.494Z,57675.22
2022-08-04T11:06:05.819Z,57753.48
2022-08-04T11:07:08.659Z,57819.69
2022-08-04T11:08:14.375Z,57915.00
2022-08-04T11:09:15.958Z,57974.20
2022-08-04T11:10:18.927Z,58032.39
2022-08-04T11:11:22.097Z,58041.42
2022-08-04T11:12:25.079Z,58073.52
2022-08-04T11:13:29.894Z,58143.76
2022-08-04T11:14:32.991Z,58139.74
2022-08-04T11:15:36.062Z,58147.77
2022-08-04T11:16:39.651Z,58179.87
2022-08-04T11:17:42.739Z,58218.00
2022-08-04T11:18:46.138Z,58230.04
2022-08-04T11:19:53.463Z,58228.04
2022-08-04T11:20:53.710Z,58281.21
2022-08-04T11:21:57.409Z,58250.11
2022-08-04T11:23:00.695Z,58266.16
2022-08-04T11:24:03.881Z,58281.21
2022-08-04T11:25:07.253Z,58309.31
2022-08-04T11:26:10.231Z,58306.30
2022-08-04T11:27:13.455Z,58296.27
2022-08-04T11:28:16.380Z,58340.41
2022-08-04T11:29:19.667Z,58324.36
2022-08-04T11:30:23.059Z,58324.36
2022-08-04T11:31:25.843Z,58305.30
2022-08-04T11:32:28.710Z,58332.39
2022-08-04T11:33:31.802Z,58337.41
2022-08-04T11:34:36.714Z,58334.39
2022-08-04T11:35:39.998Z,58366.50
2022-08-04T11:36:43.190Z,58345.43
2022-08-04T11:37:46.251Z,58375.54
2022-08-04T11:38:50.872Z,58345.43
2022-08-04T11:39:54.152Z,58371.52
2022-08-04T11:41:02.669Z,58372.52
2022-08-04T11:42:02.061Z,58378.54
2022-08-04T11:43:05.132Z,58365.50
2022-08-04T11:44:12.325Z,58370.52
2022-08-04T11:45:12.226Z,58375.54
2022-08-04T11:46:15.188Z,58378.54
2022-08-04T11:47:18.688Z,58416.67
2022-08-04T11:48:22.990Z,58392.59
2022-08-04T11:49:25.860Z,58370.52
2022-08-04T11:50:28.530Z,58384.57
2022-08-04T11:51:31.401Z,58366.50
2022-08-04T11:52:34.392Z,58401.62
2022-08-04T11:53:37.162Z,58374.53
2022-08-04T11:54:39.816Z,58362.49
2022-08-04T11:56:07.144Z,58345.43
2022-08-04T11:56:47.209Z,58359.48
2022-08-04T11:57:54.341Z,58376.54
2022-08-04T11:58:54.204Z,58370.52
2022-08-04T11:59:56.988Z,58386.57
2022-08-04T12:01:01.593Z,58360.48
2022-08-04T12:02:04.424Z,58366.50
2022-08-04T12:03:07.221Z,58351.45
2022-08-04T12:04:10.113Z,58319.34
2022-08-04T12:05:32.357Z,58358.48
2022-08-04T12:06:17.282Z,58317.34
2022-08-04T12:07:40.522Z,58325.36
2022-08-04T12:08:24.567Z,58345.43
2022-08-04T12:09:27.333Z,58290.25
2022-08-04T12:10:41.193Z,58333.39
2022-08-04T12:11:35.039Z,58294.26
2022-08-04T12:12:38.343Z,58297.27
2022-08-04T12:13:41.288Z,58282.22
2022-08-04T12:14:44.372Z,58276.20
2022-08-04T12:15:47.246Z,58299.28
2022-08-04T12:16:50.221Z,58257.13
2022-08-04T12:17:53.881Z,58228.04
2022-08-04T12:18:56.890Z,58246.10
2022-08-04T12:20:05.042Z,58243.09
2022-08-04T12:21:03.972Z,58214.99
2022-08-04T12:22:06.850Z,58220.01
2022-08-04T12:23:11.570Z,58163.82
2022-08-04T12:24:14.957Z,58200.95
2022-08-04T12:25:17.831Z,58209.98